Terminal Aerodrome Forecast
Issued by NWS Cleveland, OH

Home | Current Version | Previous Version | Graphics & Text | Print | Product List | Glossary On
Versions: 1 2 3 4 5 6 7 8 9 10 11 12 13 14 15 16 17 18 19 20
000
FTUS41 KCLE 220400 AAA
TAFERI
TAF AMD
KERI 220426Z 2204/2224 19008KT P6SM SCT070 BKN110
     FM220900 22010KT P6SM -SHRA BKN035 OVC060
      TEMPO 2209/2213 5SM -SHRA BKN018
     FM221300 29012KT 5SM -SHRA BR BKN008 OVC025
     FM221600 28014G22KT P6SM OVC012
     FM221900 30015G25KT P6SM BKN030=

USA.gov is the U.S. government's official web portal to all federal, state and local government web resources and services.